sensor_id;sensor_type;location;lat;lon;timestamp;P1;durP1;ratioP1;P2;durP2;ratioP2
4533;SDS011;2279;51.448;7.306;2023-09-30T00:00:41;253.17;;;91.87;;
4533;SDS011;2279;51.448;7.306;2023-09-30T00:03:07;249.87;;;89.00;;
4533;SDS011;2279;51.448;7.306;2023-09-30T00:05:35;249.70;;;90.90;;
4533;SDS011;2279;51.448;7.306;2023-09-30T00:08:01;250.93;;;90.57;;
4533;SDS011;2279;51.448;7.306;2023-09-30T00:10:27;250.13;;;89.10;;
4533;SDS011;2279;51.448;7.306;2023-09-30T00:12:55;251.17;;;91.13;;
4533;SDS011;2279;51.448;7.306;2023-09-30T00:15:21;248.30;;;89.30;;
4533;SDS011;2279;51.448;7.306;2023-09-30T00:17:47;250.00;;;91.50;;
4533;SDS011;2279;51.448;7.306;2023-09-30T00:20:13;251.33;;;90.07;;
4533;SDS011;2279;51.448;7.306;2023-09-30T00:22:42;249.67;;;90.50;;
4533;SDS011;2279;51.448;7.306;2023-09-30T00:25:08;247.17;;;87.17;;
4533;SDS011;2279;51.448;7.306;2023-09-30T00:27:35;248.63;;;89.53;;
4533;SDS011;2279;51.448;7.306;2023-09-30T00:30:01;249.17;;;89.00;;
4533;SDS011;2279;51.448;7.306;2023-09-30T00:32:29;248.77;;;90.33;;
4533;SDS011;2279;51.448;7.306;2023-09-30T00:34:55;249.17;;;88.33;;
4533;SDS011;2279;51.448;7.306;2023-09-30T00:37:20;252.20;;;93.17;;
4533;SDS011;2279;51.448;7.306;2023-09-30T00:39:47;248.77;;;87.37;;
4533;SDS011;2279;51.448;7.306;2023-09-30T00:42:13;249.27;;;90.43;;
4533;SDS011;2279;51.448;7.306;2023-09-30T00:44:39;250.20;;;89.90;;
4533;SDS011;2279;51.448;7.306;2023-09-30T00:47:05;247.37;;;88.37;;
4533;SDS011;2279;51.448;7.306;2023-09-30T00:49:33;249.47;;;88.00;;
4533;SDS011;2279;51.448;7.306;2023-09-30T00:51:59;244.97;;;85.97;;
4533;SDS011;2279;51.448;7.306;2023-09-30T00:54:27;249.47;;;90.27;;
4533;SDS011;2279;51.448;7.306;2023-09-30T00:56:54;247.87;;;87.23;;
4533;SDS011;2279;51.448;7.306;2023-09-30T00:59:21;251.17;;;92.30;;
4533;SDS011;2279;51.448;7.306;2023-09-30T01:01:47;248.07;;;87.67;;
4533;SDS011;2279;51.448;7.306;2023-09-30T01:04:14;247.93;;;86.57;;
4533;SDS011;2279;51.448;7.306;2023-09-30T01:06:40;248.13;;;86.00;;
4533;SDS011;2279;51.448;7.306;2023-09-30T01:09:09;247.97;;;88.77;;
4533;SDS011;2279;51.448;7.306;2023-09-30T01:11:37;246.63;;;85.50;;
4533;SDS011;2279;51.448;7.306;2023-09-30T01:14:03;250.57;;;90.33;;
4533;SDS011;2279;51.448;7.306;2023-09-30T01:16:29;249.43;;;89.63;;
4533;SDS011;2279;51.448;7.306;2023-09-30T01:18:55;249.13;;;87.97;;
4533;SDS011;2279;51.448;7.306;2023-09-30T01:21:21;249.27;;;89.40;;
4533;SDS011;2279;51.448;7.306;2023-09-30T01:23:48;248.27;;;87.70;;
4533;SDS011;2279;51.448;7.306;2023-09-30T01:26:14;250.27;;;90.57;;
4533;SDS011;2279;51.448;7.306;2023-09-30T01:28:40;248.97;;;87.87;;
4533;SDS011;2279;51.448;7.306;2023-09-30T01:31:06;247.37;;;86.03;;
4533;SDS011;2279;51.448;7.306;2023-09-30T01:33:32;250.73;;;92.30;;
4533;SDS011;2279;51.448;7.306;2023-09-30T01:35:59;248.27;;;88.43;;
4533;SDS011;2279;51.448;7.306;2023-09-30T01:38:25;249.17;;;89.87;;
4533;SDS011;2279;51.448;7.306;2023-09-30T01:40:51;253.07;;;91.77;;
4533;SDS011;2279;51.448;7.306;2023-09-30T01:43:19;245.83;;;85.07;;
4533;SDS011;2279;51.448;7.306;2023-09-30T01:45:45;249.53;;;87.67;;
4533;SDS011;2279;51.448;7.306;2023-09-30T01:48:11;248.97;;;88.37;;
4533;SDS011;2279;51.448;7.306;2023-09-30T01:50:37;250.23;;;88.87;;
4533;SDS011;2279;51.448;7.306;2023-09-30T01:53:03;246.90;;;84.90;;
4533;SDS011;2279;51.448;7.306;2023-09-30T01:55:31;247.57;;;85.87;;
4533;SDS011;2279;51.448;7.306;2023-09-30T01:57:57;247.33;;;85.57;;
4533;SDS011;2279;51.448;7.306;2023-09-30T02:00:23;248.23;;;85.67;;
4533;SDS011;2279;51.448;7.306;2023-09-30T02:02:49;247.10;;;86.47;;
4533;SDS011;2279;51.448;7.306;2023-09-30T02:05:15;249.33;;;88.67;;
4533;SDS011;2279;51.448;7.306;2023-09-30T02:07:41;247.87;;;86.37;;
4533;SDS011;2279;51.448;7.306;2023-09-30T02:10:07;247.60;;;87.20;;
4533;SDS011;2279;51.448;7.306;2023-09-30T02:12:33;248.37;;;89.10;;
4533;SDS011;2279;51.448;7.306;2023-09-30T02:14:59;247.67;;;86.67;;
4533;SDS011;2279;51.448;7.306;2023-09-30T02:17:25;248.70;;;89.07;;
4533;SDS011;2279;51.448;7.306;2023-09-30T02:19:51;249.23;;;89.57;;
4533;SDS011;2279;51.448;7.306;2023-09-30T02:22:18;245.17;;;83.37;;
4533;SDS011;2279;51.448;7.306;2023-09-30T02:24:44;249.40;;;87.20;;
4533;SDS011;2279;51.448;7.306;2023-09-30T02:27:10;247.77;;;84.90;;
4533;SDS011;2279;51.448;7.306;2023-09-30T02:29:36;247.80;;;85.90;;
4533;SDS011;2279;51.448;7.306;2023-09-30T02:32:02;247.07;;;86.80;;
4533;SDS011;2279;51.448;7.306;2023-09-30T02:34:30;246.43;;;83.67;;
4533;SDS011;2279;51.448;7.306;2023-09-30T02:36:56;249.60;;;87.33;;
4533;SDS011;2279;51.448;7.306;2023-09-30T02:39:22;249.97;;;88.03;;
4533;SDS011;2279;51.448;7.306;2023-09-30T02:41:48;246.63;;;85.30;;
4533;SDS011;2279;51.448;7.306;2023-09-30T02:44:15;245.30;;;83.80;;
4533;SDS011;2279;51.448;7.306;2023-09-30T02:46:41;247.93;;;86.93;;
4533;SDS011;2279;51.448;7.306;2023-09-30T02:49:07;248.70;;;87.80;;
4533;SDS011;2279;51.448;7.306;2023-09-30T02:51:33;247.63;;;86.00;;
4533;SDS011;2279;51.448;7.306;2023-09-30T02:53:59;249.47;;;87.83;;
4533;SDS011;2279;51.448;7.306;2023-09-30T02:56:25;250.03;;;87.57;;
4533;SDS011;2279;51.448;7.306;2023-09-30T02:58:53;248.30;;;86.30;;
4533;SDS011;2279;51.448;7.306;2023-09-30T03:01:19;250.13;;;90.63;;
4533;SDS011;2279;51.448;7.306;2023-09-30T03:03:45;247.47;;;90.00;;
4533;SDS011;2279;51.448;7.306;2023-09-30T03:06:11;247.03;;;88.13;;
4533;SDS011;2279;51.448;7.306;2023-09-30T03:08:37;248.03;;;89.90;;
4533;SDS011;2279;51.448;7.306;2023-09-30T03:11:03;248.07;;;87.10;;
4533;SDS011;2279;51.448;7.306;2023-09-30T03:13:30;249.40;;;89.77;;
4533;SDS011;2279;51.448;7.306;2023-09-30T03:15:56;249.00;;;90.60;;
4533;SDS011;2279;51.448;7.306;2023-09-30T03:18:23;248.80;;;89.73;;
4533;SDS011;2279;51.448;7.306;2023-09-30T03:20:51;249.10;;;90.60;;
4533;SDS011;2279;51.448;7.306;2023-09-30T03:23:21;247.90;;;88.23;;
4533;SDS011;2279;51.448;7.306;2023-09-30T03:25:47;246.30;;;85.87;;
4533;SDS011;2279;51.448;7.306;2023-09-30T03:28:13;248.50;;;89.97;;
4533;SDS011;2279;51.448;7.306;2023-09-30T03:30:40;249.83;;;90.23;;
4533;SDS011;2279;51.448;7.306;2023-09-30T03:33:06;244.87;;;82.93;;
4533;SDS011;2279;51.448;7.306;2023-09-30T03:35:32;249.27;;;88.63;;
4533;SDS011;2279;51.448;7.306;2023-09-30T03:37:58;246.67;;;86.13;;
4533;SDS011;2279;51.448;7.306;2023-09-30T03:40:25;246.63;;;85.47;;
4533;SDS011;2279;51.448;7.306;2023-09-30T03:42:54;245.60;;;88.10;;
4533;SDS011;2279;51.448;7.306;2023-09-30T03:45:20;245.83;;;87.23;;
4533;SDS011;2279;51.448;7.306;2023-09-30T03:47:46;245.47;;;83.97;;
4533;SDS011;2279;51.448;7.306;2023-09-30T03:50:12;248.83;;;90.23;;
4533;SDS011;2279;51.448;7.306;2023-09-30T03:52:42;247.57;;;86.83;;
4533;SDS011;2279;51.448;7.306;2023-09-30T03:55:12;247.10;;;83.90;;
4533;SDS011;2279;51.448;7.306;2023-09-30T03:57:40;244.67;;;83.63;;
4533;SDS011;2279;51.448;7.306;2023-09-30T04:00:06;244.70;;;82.60;;
4533;SDS011;2279;51.448;7.306;2023-09-30T04:02:38;249.50;;;88.50;;
4533;SDS011;2279;51.448;7.306;2023-09-30T04:05:04;245.27;;;83.80;;
4533;SDS011;2279;51.448;7.306;2023-09-30T04:07:30;245.53;;;87.23;;
4533;SDS011;2279;51.448;7.306;2023-09-30T04:09:56;243.23;;;83.03;;
4533;SDS011;2279;51.448;7.306;2023-09-30T04:12:22;246.10;;;88.30;;
4533;SDS011;2279;51.448;7.306;2023-09-30T04:14:49;250.13;;;89.20;;
4533;SDS011;2279;51.448;7.306;2023-09-30T04:17:15;245.87;;;86.30;;
4533;SDS011;2279;51.448;7.306;2023-09-30T04:19:41;247.00;;;88.93;;
4533;SDS011;2279;51.448;7.306;2023-09-30T04:22:06;248.47;;;86.67;;
4533;SDS011;2279;51.448;7.306;2023-09-30T04:24:33;248.17;;;90.33;;
4533;SDS011;2279;51.448;7.306;2023-09-30T04:26:59;247.43;;;85.87;;
4533;SDS011;2279;51.448;7.306;2023-09-30T04:29:28;246.13;;;87.93;;
4533;SDS011;2279;51.448;7.306;2023-09-30T04:31:54;248.47;;;88.07;;
4533;SDS011;2279;51.448;7.306;2023-09-30T04:34:20;245.93;;;85.83;;
4533;SDS011;2279;51.448;7.306;2023-09-30T04:36:46;249.87;;;90.63;;
4533;SDS011;2279;51.448;7.306;2023-09-30T04:39:13;247.73;;;88.40;;
4533;SDS011;2279;51.448;7.306;2023-09-30T04:41:40;248.03;;;88.93;;
4533;SDS011;2279;51.448;7.306;2023-09-30T04:44:06;246.77;;;87.77;;
4533;SDS011;2279;51.448;7.306;2023-09-30T04:46:34;244.30;;;85.77;;
4533;SDS011;2279;51.448;7.306;2023-09-30T04:49:00;247.67;;;88.63;;
4533;SDS011;2279;51.448;7.306;2023-09-30T04:51:29;248.77;;;90.10;;
4533;SDS011;2279;51.448;7.306;2023-09-30T04:53:58;246.37;;;87.33;;
4533;SDS011;2279;51.448;7.306;2023-09-30T04:56:24;244.47;;;85.67;;
4533;SDS011;2279;51.448;7.306;2023-09-30T04:58:51;249.57;;;90.07;;
4533;SDS011;2279;51.448;7.306;2023-09-30T05:01:17;246.37;;;86.47;;
4533;SDS011;2279;51.448;7.306;2023-09-30T05:03:44;247.83;;;87.37;;
4533;SDS011;2279;51.448;7.306;2023-09-30T05:06:09;245.20;;;84.33;;
4533;SDS011;2279;51.448;7.306;2023-09-30T05:08:36;248.27;;;88.47;;
4533;SDS011;2279;51.448;7.306;2023-09-30T05:11:02;246.80;;;86.97;;
4533;SDS011;2279;51.448;7.306;2023-09-30T05:13:29;248.53;;;89.07;;
4533;SDS011;2279;51.448;7.306;2023-09-30T05:15:55;247.23;;;86.33;;
4533;SDS011;2279;51.448;7.306;2023-09-30T05:18:21;248.00;;;88.00;;
4533;SDS011;2279;51.448;7.306;2023-09-30T05:20:48;250.00;;;91.10;;
4533;SDS011;2279;51.448;7.306;2023-09-30T05:23:15;247.37;;;87.63;;
4533;SDS011;2279;51.448;7.306;2023-09-30T05:25:42;247.57;;;87.33;;
4533;SDS011;2279;51.448;7.306;2023-09-30T05:28:08;248.00;;;88.77;;
4533;SDS011;2279;51.448;7.306;2023-09-30T05:30:36;245.37;;;83.00;;
4533;SDS011;2279;51.448;7.306;2023-09-30T05:33:02;247.67;;;85.90;;
4533;SDS011;2279;51.448;7.306;2023-09-30T05:35:28;248.87;;;88.97;;
4533;SDS011;2279;51.448;7.306;2023-09-30T05:37:57;243.57;;;82.00;;
4533;SDS011;2279;51.448;7.306;2023-09-30T05:40:23;247.77;;;87.40;;
4533;SDS011;2279;51.448;7.306;2023-09-30T05:42:55;247.87;;;88.07;;
4533;SDS011;2279;51.448;7.306;2023-09-30T05:45:25;246.37;;;85.23;;
4533;SDS011;2279;51.448;7.306;2023-09-30T05:47:54;245.60;;;86.30;;
4533;SDS011;2279;51.448;7.306;2023-09-30T05:50:22;250.27;;;89.87;;
4533;SDS011;2279;51.448;7.306;2023-09-30T05:52:52;247.83;;;88.93;;
4533;SDS011;2279;51.448;7.306;2023-09-30T05:55:18;249.23;;;90.87;;
4533;SDS011;2279;51.448;7.306;2023-09-30T05:57:50;246.67;;;88.47;;
4533;SDS011;2279;51.448;7.306;2023-09-30T06:00:19;246.03;;;88.07;;
4533;SDS011;2279;51.448;7.306;2023-09-30T06:02:49;246.47;;;87.50;;
4533;SDS011;2279;51.448;7.306;2023-09-30T06:05:16;246.53;;;87.00;;
4533;SDS011;2279;51.448;7.306;2023-09-30T06:07:47;246.57;;;85.07;;
4533;SDS011;2279;51.448;7.306;2023-09-30T06:10:13;248.00;;;87.80;;
4533;SDS011;2279;51.448;7.306;2023-09-30T06:12:43;245.20;;;85.10;;
4533;SDS011;2279;51.448;7.306;2023-09-30T06:15:09;246.83;;;86.53;;
4533;SDS011;2279;51.448;7.306;2023-09-30T06:17:35;247.17;;;88.33;;
4533;SDS011;2279;51.448;7.306;2023-09-30T06:20:04;248.53;;;91.10;;
4533;SDS011;2279;51.448;7.306;2023-09-30T06:22:34;248.97;;;89.37;;
4533;SDS011;2279;51.448;7.306;2023-09-30T06:25:01;249.53;;;88.57;;
4533;SDS011;2279;51.448;7.306;2023-09-30T06:27:29;247.27;;;87.47;;
4533;SDS011;2279;51.448;7.306;2023-09-30T06:29:56;247.97;;;88.20;;
4533;SDS011;2279;51.448;7.306;2023-09-30T06:32:22;248.77;;;87.20;;
4533;SDS011;2279;51.448;7.306;2023-09-30T06:34:48;250.00;;;89.53;;
4533;SDS011;2279;51.448;7.306;2023-09-30T06:37:14;247.57;;;86.10;;
4533;SDS011;2279;51.448;7.306;2023-09-30T06:39:40;249.70;;;91.57;;
4533;SDS011;2279;51.448;7.306;2023-09-30T06:42:06;250.37;;;89.23;;
4533;SDS011;2279;51.448;7.306;2023-09-30T06:44:32;248.20;;;88.30;;
4533;SDS011;2279;51.448;7.306;2023-09-30T06:46:58;250.83;;;90.50;;
4533;SDS011;2279;51.448;7.306;2023-09-30T06:49:24;250.20;;;89.43;;
4533;SDS011;2279;51.448;7.306;2023-09-30T06:51:50;251.93;;;91.47;;
4533;SDS011;2279;51.448;7.306;2023-09-30T06:54:16;250.10;;;90.17;;
4533;SDS011;2279;51.448;7.306;2023-09-30T06:56:42;252.83;;;91.07;;
4533;SDS011;2279;51.448;7.306;2023-09-30T06:59:08;252.27;;;94.23;;
4533;SDS011;2279;51.448;7.306;2023-09-30T07:01:34;252.40;;;92.47;;
4533;SDS011;2279;51.448;7.306;2023-09-30T07:04:00;253.40;;;93.87;;
4533;SDS011;2279;51.448;7.306;2023-09-30T07:06:26;255.60;;;98.47;;
4533;SDS011;2279;51.448;7.306;2023-09-30T07:08:52;255.57;;;96.60;;
4533;SDS011;2279;51.448;7.306;2023-09-30T07:11:30;255.93;;;98.10;;
4533;SDS011;2279;51.448;7.306;2023-09-30T07:13:59;254.23;;;94.23;;
4533;SDS011;2279;51.448;7.306;2023-09-30T07:16:25;258.07;;;103.87;;
4533;SDS011;2279;51.448;7.306;2023-09-30T07:18:51;255.47;;;98.33;;
4533;SDS011;2279;51.448;7.306;2023-09-30T07:21:17;256.93;;;99.77;;
4533;SDS011;2279;51.448;7.306;2023-09-30T07:23:43;258.87;;;102.30;;
4533;SDS011;2279;51.448;7.306;2023-09-30T07:26:09;255.83;;;99.63;;
4533;SDS011;2279;51.448;7.306;2023-09-30T07:28:35;260.83;;;107.70;;
4533;SDS011;2279;51.448;7.306;2023-09-30T07:31:02;259.77;;;105.63;;
4533;SDS011;2279;51.448;7.306;2023-09-30T07:33:28;257.40;;;101.07;;
4533;SDS011;2279;51.448;7.306;2023-09-30T07:35:54;260.87;;;106.93;;
4533;SDS011;2279;51.448;7.306;2023-09-30T07:38:21;263.03;;;109.67;;
4533;SDS011;2279;51.448;7.306;2023-09-30T07:40:47;264.97;;;113.03;;
4533;SDS011;2279;51.448;7.306;2023-09-30T07:43:14;256.83;;;102.90;;
4533;SDS011;2279;51.448;7.306;2023-09-30T07:45:40;255.00;;;101.33;;
4533;SDS011;2279;51.448;7.306;2023-09-30T07:48:08;261.27;;;106.63;;
4533;SDS011;2279;51.448;7.306;2023-09-30T07:50:35;266.27;;;109.07;;
4533;SDS011;2279;51.448;7.306;2023-09-30T07:53:01;261.33;;;107.73;;
4533;SDS011;2279;51.448;7.306;2023-09-30T07:55:27;259.13;;;104.43;;
4533;SDS011;2279;51.448;7.306;2023-09-30T07:57:53;260.73;;;105.87;;
4533;SDS011;2279;51.448;7.306;2023-09-30T08:00:21;256.97;;;100.23;;
4533;SDS011;2279;51.448;7.306;2023-09-30T08:02:48;256.03;;;101.43;;
4533;SDS011;2279;51.448;7.306;2023-09-30T08:05:16;255.20;;;99.00;;
4533;SDS011;2279;51.448;7.306;2023-09-30T08:07:42;252.83;;;99.07;;
4533;SDS011;2279;51.448;7.306;2023-09-30T08:10:08;253.07;;;98.50;;
4533;SDS011;2279;51.448;7.306;2023-09-30T08:12:38;255.57;;;102.17;;
4533;SDS011;2279;51.448;7.306;2023-09-30T08:15:04;253.67;;;100.40;;
4533;SDS011;2279;51.448;7.306;2023-09-30T08:17:31;251.00;;;93.90;;
4533;SDS011;2279;51.448;7.306;2023-09-30T08:19:58;253.43;;;96.67;;
4533;SDS011;2279;51.448;7.306;2023-09-30T08:22:24;250.07;;;94.27;;
4533;SDS011;2279;51.448;7.306;2023-09-30T08:24:53;254.77;;;99.50;;
4533;SDS011;2279;51.448;7.306;2023-09-30T08:27:19;251.30;;;94.07;;
4533;SDS011;2279;51.448;7.306;2023-09-30T08:29:45;248.67;;;93.97;;
4533;SDS011;2279;51.448;7.306;2023-09-30T08:32:11;253.30;;;98.20;;
4533;SDS011;2279;51.448;7.306;2023-09-30T08:34:37;247.80;;;90.50;;
4533;SDS011;2279;51.448;7.306;2023-09-30T08:37:04;250.20;;;92.87;;
4533;SDS011;2279;51.448;7.306;2023-09-30T08:39:30;253.57;;;97.07;;
4533;SDS011;2279;51.448;7.306;2023-09-30T08:41:56;252.10;;;97.23;;
4533;SDS011;2279;51.448;7.306;2023-09-30T08:44:21;250.70;;;96.47;;
4533;SDS011;2279;51.448;7.306;2023-09-30T08:46:48;255.17;;;101.53;;
4533;SDS011;2279;51.448;7.306;2023-09-30T08:49:14;252.07;;;99.67;;
4533;SDS011;2279;51.448;7.306;2023-09-30T08:51:40;256.13;;;103.53;;
4533;SDS011;2279;51.448;7.306;2023-09-30T08:54:07;253.57;;;97.20;;
4533;SDS011;2279;51.448;7.306;2023-09-30T08:56:33;255.00;;;98.57;;
4533;SDS011;2279;51.448;7.306;2023-09-30T08:59:00;255.47;;;101.00;;
4533;SDS011;2279;51.448;7.306;2023-09-30T09:01:27;263.97;;;110.03;;
4533;SDS011;2279;51.448;7.306;2023-09-30T09:03:53;257.27;;;104.33;;
4533;SDS011;2279;51.448;7.306;2023-09-30T09:06:20;259.40;;;107.13;;
4533;SDS011;2279;51.448;7.306;2023-09-30T09:08:46;259.10;;;106.93;;
4533;SDS011;2279;51.448;7.306;2023-09-30T09:11:12;260.50;;;108.83;;
4533;SDS011;2279;51.448;7.306;2023-09-30T09:13:46;259.57;;;108.57;;
4533;SDS011;2279;51.448;7.306;2023-09-30T09:16:15;258.60;;;108.50;;
4533;SDS011;2279;51.448;7.306;2023-09-30T09:18:42;255.27;;;107.10;;
4533;SDS011;2279;51.448;7.306;2023-09-30T09:21:11;255.40;;;108.27;;
4533;SDS011;2279;51.448;7.306;2023-09-30T09:26:07;257.03;;;111.03;;
4533;SDS011;2279;51.448;7.306;2023-09-30T09:28:34;251.90;;;105.03;;
4533;SDS011;2279;51.448;7.306;2023-09-30T09:31:01;256.13;;;111.33;;
4533;SDS011;2279;51.448;7.306;2023-09-30T09:33:35;257.90;;;110.73;;
4533;SDS011;2279;51.448;7.306;2023-09-30T09:36:02;256.77;;;112.20;;
4533;SDS011;2279;51.448;7.306;2023-09-30T09:38:31;259.97;;;117.17;;
4533;SDS011;2279;51.448;7.306;2023-09-30T09:41:08;259.50;;;119.77;;
4533;SDS011;2279;51.448;7.306;2023-09-30T09:43:35;259.17;;;117.10;;
4533;SDS011;2279;51.448;7.306;2023-09-30T09:46:03;257.73;;;114.73;;
4533;SDS011;2279;51.448;7.306;2023-09-30T09:48:34;259.40;;;119.47;;
4533;SDS011;2279;51.448;7.306;2023-09-30T09:51:00;257.63;;;118.03;;
4533;SDS011;2279;51.448;7.306;2023-09-30T09:53:29;256.87;;;118.03;;
4533;SDS011;2279;51.448;7.306;2023-09-30T09:55:56;258.20;;;118.50;;
4533;SDS011;2279;51.448;7.306;2023-09-30T09:58:22;259.10;;;121.13;;
4533;SDS011;2279;51.448;7.306;2023-09-30T10:00:49;260.37;;;124.50;;
4533;SDS011;2279;51.448;7.306;2023-09-30T10:03:16;257.77;;;123.80;;
4533;SDS011;2279;51.448;7.306;2023-09-30T10:05:42;257.60;;;121.40;;
4533;SDS011;2279;51.448;7.306;2023-09-30T10:08:11;257.03;;;124.50;;
4533;SDS011;2279;51.448;7.306;2023-09-30T10:10:38;264.63;;;135.23;;
4533;SDS011;2279;51.448;7.306;2023-09-30T10:13:05;257.37;;;126.30;;
4533;SDS011;2279;51.448;7.306;2023-09-30T10:15:34;260.30;;;126.70;;
4533;SDS011;2279;51.448;7.306;2023-09-30T10:20:32;261.23;;;129.20;;
4533;SDS011;2279;51.448;7.306;2023-09-30T10:28:42;259.70;;;125.60;;
4533;SDS011;2279;51.448;7.306;2023-09-30T10:31:15;256.77;;;121.73;;
4533;SDS011;2279;51.448;7.306;2023-09-30T10:36:33;256.53;;;116.33;;
4533;SDS011;2279;51.448;7.306;2023-09-30T10:39:04;252.70;;;110.70;;
4533;SDS011;2279;51.448;7.306;2023-09-30T10:46:55;255.00;;;108.87;;
4533;SDS011;2279;51.448;7.306;2023-09-30T10:51:53;252.00;;;104.23;;
4533;SDS011;2279;51.448;7.306;2023-09-30T10:54:30;252.30;;;105.90;;
4533;SDS011;2279;51.448;7.306;2023-09-30T10:56:57;252.87;;;106.73;;
4533;SDS011;2279;51.448;7.306;2023-09-30T10:59:27;254.80;;;110.30;;
4533;SDS011;2279;51.448;7.306;2023-09-30T11:01:55;256.73;;;116.20;;
4533;SDS011;2279;51.448;7.306;2023-09-30T11:04:21;254.70;;;117.13;;
4533;SDS011;2279;51.448;7.306;2023-09-30T11:06:47;258.10;;;123.40;;
4533;SDS011;2279;51.448;7.306;2023-09-30T11:09:19;256.37;;;123.70;;
4533;SDS011;2279;51.448;7.306;2023-09-30T11:11:49;257.20;;;126.93;;
4533;SDS011;2279;51.448;7.306;2023-09-30T11:14:30;258.60;;;133.70;;
4533;SDS011;2279;51.448;7.306;2023-09-30T11:16:58;257.17;;;131.13;;
4533;SDS011;2279;51.448;7.306;2023-09-30T11:19:35;253.23;;;125.70;;
4533;SDS011;2279;51.448;7.306;2023-09-30T11:22:02;255.60;;;128.10;;
4533;SDS011;2279;51.448;7.306;2023-09-30T11:24:28;253.80;;;123.97;;
4533;SDS011;2279;51.448;7.306;2023-09-30T11:26:55;255.20;;;125.37;;
4533;SDS011;2279;51.448;7.306;2023-09-30T11:29:21;254.97;;;123.53;;
4533;SDS011;2279;51.448;7.306;2023-09-30T11:31:48;256.63;;;125.40;;
4533;SDS011;2279;51.448;7.306;2023-09-30T11:34:16;252.87;;;118.13;;
4533;SDS011;2279;51.448;7.306;2023-09-30T11:36:48;255.73;;;124.80;;
4533;SDS011;2279;51.448;7.306;2023-09-30T11:39:23;256.97;;;125.63;;
4533;SDS011;2279;51.448;7.306;2023-09-30T11:41:50;259.00;;;128.90;;
4533;SDS011;2279;51.448;7.306;2023-09-30T11:44:17;254.57;;;125.13;;
4533;SDS011;2279;51.448;7.306;2023-09-30T11:46:56;256.70;;;126.37;;
4533;SDS011;2279;51.448;7.306;2023-09-30T11:49:34;253.07;;;120.60;;
4533;SDS011;2279;51.448;7.306;2023-09-30T11:52:01;255.90;;;123.70;;
4533;SDS011;2279;51.448;7.306;2023-09-30T11:54:28;255.57;;;122.43;;
4533;SDS011;2279;51.448;7.306;2023-09-30T11:56:55;255.47;;;123.43;;
4533;SDS011;2279;51.448;7.306;2023-09-30T11:59:21;254.43;;;127.53;;
4533;SDS011;2279;51.448;7.306;2023-09-30T12:01:48;255.00;;;123.53;;
4533;SDS011;2279;51.448;7.306;2023-09-30T12:04:14;256.33;;;128.47;;
4533;SDS011;2279;51.448;7.306;2023-09-30T12:06:42;255.37;;;128.60;;
4533;SDS011;2279;51.448;7.306;2023-09-30T12:09:08;255.87;;;129.80;;
4533;SDS011;2279;51.448;7.306;2023-09-30T12:11:38;255.77;;;129.00;;
4533;SDS011;2279;51.448;7.306;2023-09-30T12:14:04;256.10;;;133.13;;
4533;SDS011;2279;51.448;7.306;2023-09-30T12:16:31;253.23;;;128.03;;
4533;SDS011;2279;51.448;7.306;2023-09-30T12:18:57;256.67;;;130.80;;
4533;SDS011;2279;51.448;7.306;2023-09-30T12:21:23;254.17;;;128.50;;
4533;SDS011;2279;51.448;7.306;2023-09-30T12:23:49;256.90;;;129.77;;
4533;SDS011;2279;51.448;7.306;2023-09-30T12:26:16;256.67;;;132.17;;
4533;SDS011;2279;51.448;7.306;2023-09-30T12:28:44;253.77;;;128.93;;
4533;SDS011;2279;51.448;7.306;2023-09-30T12:31:10;253.50;;;127.50;;
4533;SDS011;2279;51.448;7.306;2023-09-30T12:33:38;256.77;;;133.17;;
4533;SDS011;2279;51.448;7.306;2023-09-30T12:36:05;253.80;;;127.17;;
4533;SDS011;2279;51.448;7.306;2023-09-30T12:38:32;255.43;;;129.87;;
4533;SDS011;2279;51.448;7.306;2023-09-30T12:40:58;256.37;;;131.37;;
4533;SDS011;2279;51.448;7.306;2023-09-30T12:43:25;251.40;;;122.20;;
4533;SDS011;2279;51.448;7.306;2023-09-30T12:45:51;256.33;;;127.50;;
4533;SDS011;2279;51.448;7.306;2023-09-30T12:48:17;261.17;;;135.67;;
4533;SDS011;2279;51.448;7.306;2023-09-30T12:50:46;259.00;;;132.77;;
4533;SDS011;2279;51.448;7.306;2023-09-30T12:53:13;257.37;;;132.33;;
4533;SDS011;2279;51.448;7.306;2023-09-30T12:55:39;255.93;;;125.27;;
4533;SDS011;2279;51.448;7.306;2023-09-30T12:58:05;255.37;;;127.60;;
4533;SDS011;2279;51.448;7.306;2023-09-30T13:00:32;256.50;;;126.67;;
4533;SDS011;2279;51.448;7.306;2023-09-30T13:02:59;255.70;;;129.50;;
4533;SDS011;2279;51.448;7.306;2023-09-30T13:05:26;259.83;;;135.37;;
4533;SDS011;2279;51.448;7.306;2023-09-30T13:07:54;255.83;;;129.40;;
4533;SDS011;2279;51.448;7.306;2023-09-30T13:10:20;258.90;;;133.07;;
4533;SDS011;2279;51.448;7.306;2023-09-30T13:12:47;259.30;;;131.47;;
4533;SDS011;2279;51.448;7.306;2023-09-30T13:15:14;261.47;;;133.57;;
4533;SDS011;2279;51.448;7.306;2023-09-30T13:17:40;260.70;;;130.23;;
4533;SDS011;2279;51.448;7.306;2023-09-30T13:20:06;260.33;;;128.17;;
4533;SDS011;2279;51.448;7.306;2023-09-30T13:22:34;255.50;;;122.93;;
4533;SDS011;2279;51.448;7.306;2023-09-30T13:25:03;257.73;;;125.60;;
4533;SDS011;2279;51.448;7.306;2023-09-30T13:27:30;257.20;;;124.97;;
4533;SDS011;2279;51.448;7.306;2023-09-30T13:29:56;258.07;;;129.87;;
4533;SDS011;2279;51.448;7.306;2023-09-30T13:32:23;255.10;;;124.87;;
4533;SDS011;2279;51.448;7.306;2023-09-30T13:34:50;258.50;;;128.10;;
4533;SDS011;2279;51.448;7.306;2023-09-30T13:37:16;259.23;;;126.90;;
4533;SDS011;2279;51.448;7.306;2023-09-30T13:39:42;255.97;;;126.50;;
4533;SDS011;2279;51.448;7.306;2023-09-30T13:42:08;255.93;;;124.70;;
4533;SDS011;2279;51.448;7.306;2023-09-30T13:44:34;255.73;;;122.60;;
4533;SDS011;2279;51.448;7.306;2023-09-30T13:47:01;255.07;;;119.90;;
4533;SDS011;2279;51.448;7.306;2023-09-30T13:49:28;255.20;;;116.83;;
4533;SDS011;2279;51.448;7.306;2023-09-30T13:51:55;252.43;;;112.47;;
4533;SDS011;2279;51.448;7.306;2023-09-30T13:54:21;255.43;;;115.53;;
4533;SDS011;2279;51.448;7.306;2023-09-30T13:56:47;255.00;;;114.43;;
4533;SDS011;2279;51.448;7.306;2023-09-30T13:59:13;258.30;;;117.67;;
4533;SDS011;2279;51.448;7.306;2023-09-30T14:01:39;256.63;;;116.37;;
4533;SDS011;2279;51.448;7.306;2023-09-30T14:04:06;252.10;;;110.47;;
4533;SDS011;2279;51.448;7.306;2023-09-30T14:06:32;251.03;;;112.67;;
4533;SDS011;2279;51.448;7.306;2023-09-30T14:08:58;252.43;;;111.73;;
4533;SDS011;2279;51.448;7.306;2023-09-30T14:11:25;254.37;;;113.70;;
4533;SDS011;2279;51.448;7.306;2023-09-30T14:13:50;259.57;;;112.90;;
4533;SDS011;2279;51.448;7.306;2023-09-30T14:16:16;255.60;;;114.27;;
4533;SDS011;2279;51.448;7.306;2023-09-30T14:18:42;250.37;;;106.23;;
4533;SDS011;2279;51.448;7.306;2023-09-30T14:21:10;250.63;;;105.33;;
4533;SDS011;2279;51.448;7.306;2023-09-30T14:23:36;253.10;;;110.90;;
4533;SDS011;2279;51.448;7.306;2023-09-30T14:26:02;255.23;;;112.10;;
4533;SDS011;2279;51.448;7.306;2023-09-30T14:28:35;254.87;;;110.23;;
4533;SDS011;2279;51.448;7.306;2023-09-30T14:31:02;252.20;;;106.07;;
4533;SDS011;2279;51.448;7.306;2023-09-30T14:33:29;254.07;;;110.10;;
4533;SDS011;2279;51.448;7.306;2023-09-30T14:35:55;252.73;;;107.80;;
4533;SDS011;2279;51.448;7.306;2023-09-30T14:38:21;254.80;;;110.70;;
4533;SDS011;2279;51.448;7.306;2023-09-30T14:40:48;254.50;;;106.77;;
4533;SDS011;2279;51.448;7.306;2023-09-30T14:43:15;255.90;;;110.90;;
4533;SDS011;2279;51.448;7.306;2023-09-30T14:45:41;255.60;;;114.37;;
4533;SDS011;2279;51.448;7.306;2023-09-30T14:48:07;252.23;;;106.50;;